Time;durP1;ratioP1;P1;durP2;ratioP2;P2;SDS_P1;SDS_P2;PMS_P1;PMS_P2;Temp;Humidity;BMP_temperature;BMP_pressure;BME280_temperature;BME280_humidity;BME280_pressure;Samples;Min_cycle;Max_cycle;Signal;HPM_P1;HPM_P2
2023/06/20 00:02:21;;;;;;;1999.90;999.90;;;17.50;99.90;;;;;;5080450;28;20045;-80
2023/06/20 00:04:47;;;;;;;1999.90;999.90;;;17.50;99.90;;;;;;5049988;28;20518;-81
2023/06/20 00:07:13;;;;;;;1999.90;999.90;;;17.40;99.90;;;;;;5051574;28;20057;-81
2023/06/20 00:09:39;;;;;;;1999.90;999.90;;;17.40;99.90;;;;;;5053972;28;20135;-82
2023/06/20 00:12:05;;;;;;;1999.90;999.90;;;17.40;99.90;;;;;;5052009;28;20049;-82
2023/06/20 00:14:30;;;;;;;1999.90;999.90;;;17.40;99.90;;;;;;5049769;28;20056;-82
2023/06/20 00:16:59;;;;;;;1999.90;999.90;;;17.40;99.90;;;;;;5050682;28;20482;-82
2023/06/20 00:19:26;;;;;;;1999.90;999.90;;;17.40;99.90;;;;;;5049299;28;20378;-81
2023/06/20 00:21:52;;;;;;;1999.90;999.90;;;17.30;99.90;;;;;;5050810;28;20060;-82
2023/06/20 00:24:17;;;;;;;1999.90;999.90;;;17.30;99.90;;;;;;5052568;28;20053;-82
2023/06/20 00:26:43;;;;;;;1999.90;999.90;;;17.30;99.90;;;;;;5051162;28;20394;-82
2023/06/20 00:29:09;;;;;;;1999.90;999.90;;;17.30;99.90;;;;;;5052294;28;20048;-82
2023/06/20 00:31:36;;;;;;;1999.90;999.90;;;17.20;99.90;;;;;;5052511;28;20081;-82
2023/06/20 00:34:02;;;;;;;1999.90;999.90;;;17.30;99.90;;;;;;5052785;28;20042;-82
2023/06/20 00:36:28;;;;;;;1999.90;999.90;;;17.30;99.90;;;;;;5050229;28;20094;-82
2023/06/20 00:38:54;;;;;;;1999.90;999.90;;;17.30;99.90;;;;;;5050210;28;20041;-79
2023/06/20 00:41:21;;;;;;;1999.90;999.90;;;17.30;99.90;;;;;;5050841;28;20037;-80
2023/06/20 00:43:50;;;;;;;1999.90;999.90;;;17.30;99.90;;;;;;5052062;28;20079;-81
2023/06/20 00:46:23;;;;;;;1999.90;999.90;;;17.30;99.90;;;;;;5050256;28;20094;-80
2023/06/20 00:48:49;;;;;;;1999.90;999.90;;;17.30;99.90;;;;;;5052937;28;20084;-80
2023/06/20 00:51:20;;;;;;;1999.90;999.90;;;17.30;99.90;;;;;;5050822;28;20124;-80
2023/06/20 00:53:47;;;;;;;1999.90;999.90;;;17.20;99.90;;;;;;5049292;28;20545;-80
2023/06/20 00:56:13;;;;;;;1999.90;999.90;;;17.20;99.90;;;;;;5047964;28;20171;-80
2023/06/20 00:58:39;;;;;;;1999.90;999.90;;;17.20;99.90;;;;;;5051767;28;20049;-81
2023/06/20 01:01:06;;;;;;;1999.90;999.90;;;17.20;99.90;;;;;;5050679;28;20044;-80
2023/06/20 01:03:35;;;;;;;1999.90;999.90;;;17.20;99.90;;;;;;5046078;28;20060;-81
2023/06/20 01:06:33;;;;;;;1999.90;999.90;;;17.20;99.90;;;;;;5052539;28;20120;-81
2023/06/20 01:09:16;;;;;;;1999.90;999.90;;;17.30;99.90;;;;;;5047440;28;20128;-81
2023/06/20 01:12:31;;;;;;;1999.90;999.90;;;17.20;99.90;;;;;;5041391;28;20123;-81
2023/06/20 01:15:11;;;;;;;1999.90;999.90;;;17.20;99.90;;;;;;5037882;28;20059;-81
2023/06/20 01:18:05;;;;;;;1999.90;999.90;;;17.30;99.90;;;;;;5044040;28;20053;-81
2023/06/20 01:20:33;;;;;;;1999.90;999.90;;;17.30;99.90;;;;;;5077185;28;20061;-81
2023/06/20 01:23:23;;;;;;;1999.90;999.90;;;17.30;99.90;;;;;;5045753;28;20053;-81
2023/06/20 01:26:03;;;;;;;1999.90;999.90;;;17.30;99.90;;;;;;5042360;28;20060;-81
2023/06/20 01:28:50;;;;;;;1999.90;999.90;;;17.30;99.90;;;;;;5043181;28;20049;-81
2023/06/20 01:31:28;;;;;;;1999.90;999.90;;;17.30;99.90;;;;;;5045845;28;20121;-81
2023/06/20 01:34:08;;;;;;;;;;;17.30;99.90;;;;;;5046912;28;20676;-81
2023/06/20 01:36:37;;;;;;;1999.90;999.90;;;17.30;99.90;;;;;;5045657;28;19932;-82
2023/06/20 01:39:10;;;;;;;1999.90;999.90;;;17.30;99.90;;;;;;5048120;28;20044;-82
2023/06/20 01:41:39;;;;;;;1999.90;999.90;;;17.20;99.90;;;;;;5044855;28;20076;-81
2023/06/20 01:44:09;;;;;;;1999.90;999.90;;;17.20;99.90;;;;;;5045115;28;20053;-81
2023/06/20 01:46:35;;;;;;;1999.90;999.90;;;17.20;99.90;;;;;;5044373;28;20069;-81
2023/06/20 01:49:02;;;;;;;1999.90;999.90;;;17.20;99.90;;;;;;5046463;28;20052;-81
2023/06/20 01:51:30;;;;;;;1999.90;999.90;;;17.20;99.90;;;;;;5080103;28;20061;-81
2023/06/20 01:53:57;;;;;;;1999.90;999.90;;;17.10;99.90;;;;;;5073906;28;20044;-81
2023/06/20 01:56:27;;;;;;;1999.90;999.90;;;17.20;99.90;;;;;;5046537;28;20123;-81
2023/06/20 01:58:54;;;;;;;1999.90;999.90;;;17.10;99.90;;;;;;5043057;28;20056;-81
2023/06/20 02:01:21;;;;;;;1999.90;999.90;;;17.10;99.90;;;;;;5042941;28;20083;-81
2023/06/20 02:03:48;;;;;;;1999.90;999.90;;;17.20;99.90;;;;;;5046047;28;20074;-81
2023/06/20 02:06:15;;;;;;;1999.90;999.90;;;17.20;99.90;;;;;;5046324;28;20397;-81
2023/06/20 02:08:42;;;;;;;1999.90;999.90;;;17.20;99.90;;;;;;5045964;28;20507;-81
2023/06/20 02:11:09;;;;;;;1999.90;999.90;;;17.20;99.90;;;;;;5046978;28;20146;-81
2023/06/20 02:13:36;;;;;;;1999.90;999.90;;;17.20;99.90;;;;;;5052923;28;20049;-81
2023/06/20 02:16:05;;;;;;;1999.90;999.90;;;17.20;99.90;;;;;;5049904;28;20515;-81
2023/06/20 02:18:32;;;;;;;1999.90;999.90;;;17.30;99.90;;;;;;5049239;28;20044;-81
2023/06/20 02:21:03;;;;;;;1999.90;999.90;;;17.20;99.90;;;;;;5048572;28;20512;-81
2023/06/20 02:23:31;;;;;;;1999.90;999.90;;;17.30;99.90;;;;;;5049777;28;20136;-81
2023/06/20 02:26:00;;;;;;;;;;;17.30;99.90;;;;;;5050261;28;20052;-80
2023/06/20 02:28:28;;;;;;;1999.90;999.90;;;17.40;99.90;;;;;;5049636;28;19925;-81
2023/06/20 02:30:54;;;;;;;;;;;17.40;99.90;;;;;;5047604;28;20048;-81
2023/06/20 02:33:22;;;;;;;1999.90;999.90;;;17.40;99.90;;;;;;5048427;28;19927;-81
2023/06/20 02:35:50;;;;;;;1999.90;999.90;;;17.40;99.90;;;;;;5049703;28;20045;-81
2023/06/20 02:38:16;;;;;;;1999.90;999.90;;;17.40;99.90;;;;;;5048686;28;20366;-81
2023/06/20 02:40:42;;;;;;;1999.90;999.90;;;17.40;99.90;;;;;;5045287;28;20045;-81
2023/06/20 02:43:08;;;;;;;1999.90;999.90;;;17.40;99.90;;;;;;5050752;28;20049;-81
2023/06/20 02:45:35;;;;;;;1999.90;999.90;;;17.40;99.90;;;;;;5049813;28;20056;-81
2023/06/20 02:48:21;;;;;;;1999.90;999.90;;;17.30;99.90;;;;;;5048357;28;20106;-81
2023/06/20 02:50:50;;;;;;;1999.90;999.90;;;17.30;99.90;;;;;;5046762;28;20485;-82
2023/06/20 02:53:28;;;;;;;1999.90;999.90;;;17.30;99.90;;;;;;5048579;28;20398;-81
2023/06/20 02:56:01;;;;;;;1999.90;999.90;;;17.30;99.90;;;;;;5049536;28;20044;-81
2023/06/20 02:58:29;;;;;;;1999.90;999.90;;;17.30;99.90;;;;;;5042658;28;20375;-81
2023/06/20 03:00:58;;;;;;;1999.90;999.90;;;17.20;99.90;;;;;;5046491;28;20044;-81
2023/06/20 03:03:36;;;;;;;1999.90;999.90;;;17.20;99.90;;;;;;5049754;28;20083;-81
2023/06/20 03:06:02;;;;;;;1999.90;999.90;;;17.10;99.90;;;;;;5049011;28;20080;-80
2023/06/20 03:08:30;;;;;;;1999.90;999.90;;;17.10;99.90;;;;;;5050852;28;20402;-81
2023/06/20 03:11:00;;;;;;;1999.90;999.90;;;17.10;99.90;;;;;;5044531;28;20053;-81
2023/06/20 03:13:28;;;;;;;1999.90;999.90;;;17.10;99.90;;;;;;5049791;28;20124;-81
2023/06/20 03:15:56;;;;;;;1999.90;999.90;;;17.20;99.90;;;;;;5049036;28;20037;-81
2023/06/20 03:18:22;;;;;;;1999.90;999.90;;;17.10;99.90;;;;;;5044785;28;20036;-81
2023/06/20 03:20:48;;;;;;;1999.90;999.90;;;17.10;99.90;;;;;;5023014;28;20107;-81
2023/06/20 03:23:15;;;;;;;1999.90;999.90;;;17.20;99.90;;;;;;5047108;28;20501;-81
2023/06/20 03:25:41;;;;;;;1999.90;999.90;;;17.20;99.90;;;;;;5046471;28;20061;-81
2023/06/20 03:28:07;;;;;;;1999.90;999.90;;;17.10;99.90;;;;;;5049549;28;20449;-81
2023/06/20 03:30:32;;;;;;;1999.90;999.90;;;17.20;99.90;;;;;;5049891;28;20041;-81
2023/06/20 03:32:58;;;;;;;1999.90;999.90;;;17.20;99.90;;;;;;5048270;28;20067;-81
2023/06/20 03:35:24;;;;;;;1999.90;999.90;;;17.20;99.90;;;;;;5049449;28;20489;-81
2023/06/20 03:37:50;;;;;;;1999.90;999.90;;;17.20;99.90;;;;;;5048462;28;20045;-82
2023/06/20 03:40:16;;;;;;;1999.90;999.90;;;17.30;99.90;;;;;;5050521;28;20037;-81
2023/06/20 03:42:42;;;;;;;1999.90;999.90;;;17.30;99.90;;;;;;5051024;28;20079;-81
2023/06/20 03:45:08;;;;;;;1999.90;999.90;;;17.30;99.90;;;;;;5050504;28;20397;-81
2023/06/20 03:47:33;;;;;;;1999.90;999.90;;;17.30;99.90;;;;;;5052068;28;20041;-81
2023/06/20 03:49:59;;;;;;;1999.90;999.90;;;17.40;99.90;;;;;;5052404;28;20401;-81
2023/06/20 03:52:25;;;;;;;1999.90;999.90;;;17.40;99.90;;;;;;5052830;28;20052;-81
2023/06/20 03:54:50;;;;;;;1999.90;999.90;;;17.50;99.90;;;;;;5051288;28;20036;-81
2023/06/20 03:57:16;;;;;;;1999.90;999.90;;;17.50;99.90;;;;;;5047531;28;20044;-81
2023/06/20 03:59:42;;;;;;;1999.90;999.90;;;17.50;99.90;;;;;;5049007;28;20052;-82
2023/06/20 04:02:07;;;;;;;1999.90;999.90;;;17.50;99.90;;;;;;5052201;28;20509;-82
2023/06/20 04:04:33;;;;;;;1999.90;999.90;;;17.50;99.90;;;;;;5052372;28;20394;-82
2023/06/20 04:06:59;;;;;;;1999.90;999.90;;;17.50;99.90;;;;;;5049173;28;20102;-82
2023/06/20 04:09:26;;;;;;;1999.90;999.90;;;17.50;99.90;;;;;;5043857;28;20443;-82
2023/06/20 04:11:53;;;;;;;1999.90;999.90;;;17.60;99.90;;;;;;5046078;28;20049;-81
2023/06/20 04:14:19;;;;;;;1999.90;999.90;;;17.60;99.90;;;;;;5046933;28;20056;-81
2023/06/20 04:16:47;;;;;;;1999.90;999.90;;;17.60;99.90;;;;;;5048988;28;20044;-81
2023/06/20 04:19:14;;;;;;;1999.90;999.90;;;17.60;99.90;;;;;;5046083;28;20045;-82
2023/06/20 04:21:40;;;;;;;1999.90;999.90;;;17.60;99.90;;;;;;5044542;28;20064;-80
2023/06/20 04:24:06;;;;;;;1999.90;999.90;;;17.70;99.90;;;;;;5048181;28;20053;-81
2023/06/20 04:26:31;;;;;;;1999.90;999.90;;;17.70;99.90;;;;;;5044543;28;20049;-81
2023/06/20 04:28:57;;;;;;;1999.90;999.90;;;17.70;99.90;;;;;;5040805;28;20048;-81
2023/06/20 04:31:24;;;;;;;1999.90;999.90;;;17.80;99.90;;;;;;5038549;28;20442;-81
2023/06/20 04:33:50;;;;;;;1999.90;999.90;;;17.90;99.90;;;;;;5073335;28;20041;-81
2023/06/20 04:36:15;;;;;;;1999.90;999.90;;;18.00;99.90;;;;;;5040174;28;20470;-81
2023/06/20 04:38:42;;;;;;;1999.90;999.90;;;18.00;99.90;;;;;;5038552;28;20053;-81
2023/06/20 04:41:08;;;;;;;1999.90;999.90;;;18.10;99.90;;;;;;5040072;28;20470;-81
2023/06/20 04:43:35;;;;;;;1999.90;999.90;;;18.20;99.90;;;;;;5039291;28;20131;-81
2023/06/20 04:46:01;;;;;;;1999.90;999.90;;;18.30;99.90;;;;;;5041412;28;20045;-81
2023/06/20 04:48:35;;;;;;;1999.90;999.90;;;18.30;99.90;;;;;;5043019;28;20482;-81
2023/06/20 04:51:01;;;;;;;1999.90;999.90;;;18.40;99.90;;;;;;5045280;28;20370;-82
2023/06/20 04:53:27;;;;;;;1999.90;999.90;;;18.50;99.90;;;;;;5045259;28;20041;-81
2023/06/20 04:55:53;;;;;;;1999.90;999.90;;;18.50;99.90;;;;;;5044097;28;20041;-81
2023/06/20 04:58:19;;;;;;;1999.90;999.90;;;18.50;99.90;;;;;;5030317;28;20251;-81
2023/06/20 05:00:44;;;;;;;1999.90;999.90;;;18.50;99.90;;;;;;5045090;28;20052;-81
2023/06/20 05:03:10;;;;;;;1999.90;999.90;;;18.60;99.90;;;;;;5048613;28;20041;-81
2023/06/20 05:05:36;;;;;;;1999.90;999.90;;;18.60;99.90;;;;;;5045391;28;20572;-82
2023/06/20 05:08:01;;;;;;;1999.90;999.90;;;18.60;99.90;;;;;;5049113;28;20091;-81
2023/06/20 05:10:27;;;;;;;1999.90;999.90;;;18.60;99.90;;;;;;5048907;28;20111;-81
2023/06/20 05:12:53;;;;;;;1999.90;999.90;;;18.60;99.90;;;;;;5056682;28;20060;-80
2023/06/20 05:15:24;;;;;;;1999.90;999.90;;;18.60;99.90;;;;;;5041615;28;20044;-81
2023/06/20 05:17:53;;;;;;;1999.90;999.90;;;18.60;99.90;;;;;;5063353;28;20061;-81
2023/06/20 05:20:19;;;;;;;1999.90;999.90;;;18.70;99.90;;;;;;5062408;28;20071;-80
2023/06/20 05:22:46;;;;;;;1999.90;999.90;;;18.70;99.90;;;;;;5054740;28;20127;-81
2023/06/20 05:25:12;;;;;;;1999.90;999.90;;;18.70;99.90;;;;;;5060413;28;20049;-81
2023/06/20 05:27:38;;;;;;;1999.90;999.90;;;18.80;99.90;;;;;;5065814;28;20045;-81
2023/06/20 05:30:05;;;;;;;1999.90;999.90;;;18.80;99.90;;;;;;5072258;28;20069;-80
2023/06/20 05:32:30;;;;;;;1999.90;999.90;;;18.90;99.90;;;;;;5074730;28;20076;-79
2023/06/20 05:34:56;;;;;;;1999.90;999.90;;;18.90;99.90;;;;;;5073133;28;20049;-79
2023/06/20 05:37:22;;;;;;;1999.90;999.90;;;19.00;99.90;;;;;;5070904;28;20052;-81
2023/06/20 05:39:48;;;;;;;1999.90;999.90;;;19.10;99.90;;;;;;5057442;28;20448;-81
2023/06/20 05:42:13;;;;;;;1999.90;999.90;;;19.20;99.90;;;;;;5050852;28;20045;-81
2023/06/20 05:44:39;;;;;;;1999.90;999.90;;;19.30;99.90;;;;;;5047323;28;20036;-81
2023/06/20 05:47:05;;;;;;;1999.90;999.90;;;19.40;99.90;;;;;;5046927;28;20049;-82
2023/06/20 05:49:31;;;;;;;1999.90;999.90;;;19.70;99.90;;;;;;5041277;28;20053;-81
2023/06/20 05:52:00;;;;;;;1999.90;999.90;;;19.60;99.90;;;;;;5044740;28;20048;-82
2023/06/20 05:54:26;;;;;;;1999.90;999.90;;;19.80;99.90;;;;;;5046844;28;20694;-79
2023/06/20 05:56:52;;;;;;;1999.90;999.90;;;19.90;99.90;;;;;;5042939;28;20041;-79
2023/06/20 05:59:18;;;;;;;1999.90;999.90;;;19.90;99.90;;;;;;5043201;28;20084;-80
2023/06/20 06:01:45;;;;;;;1999.90;999.90;;;20.00;99.90;;;;;;5014943;28;20073;-79
2023/06/20 06:04:11;;;;;;;1999.90;999.90;;;20.00;99.90;;;;;;5044790;28;20045;-80
2023/06/20 06:06:37;;;;;;;1999.90;999.90;;;20.00;99.90;;;;;;5050712;28;20367;-80
2023/06/20 06:09:03;;;;;;;1999.90;999.90;;;20.00;99.90;;;;;;5053136;28;20049;-81
2023/06/20 06:11:29;;;;;;;1999.90;999.90;;;20.10;99.90;;;;;;5051985;28;20568;-80
2023/06/20 06:13:55;;;;;;;1999.90;999.90;;;20.10;99.90;;;;;;5052750;28;20041;-81
2023/06/20 06:16:21;;;;;;;1999.90;999.90;;;20.10;99.90;;;;;;5048575;28;20048;-80
2023/06/20 06:18:47;;;;;;;1999.90;999.90;;;20.20;99.90;;;;;;5048941;28;20049;-81
2023/06/20 06:21:14;;;;;;;1999.90;999.90;;;20.30;99.90;;;;;;5049054;28;20072;-81
2023/06/20 06:23:39;;;;;;;1999.90;999.90;;;20.50;99.90;;;;;;5049637;28;20107;-81
2023/06/20 06:26:05;;;;;;;1999.90;999.90;;;20.70;99.90;;;;;;5049581;28;20422;-81
2023/06/20 06:28:31;;;;;;;1999.90;999.90;;;20.80;99.90;;;;;;5048877;28;20083;-81
2023/06/20 06:31:05;;;;;;;1999.90;999.90;;;21.00;99.90;;;;;;5052265;28;20131;-81
2023/06/20 06:33:31;;;;;;;1999.90;781.10;;;21.20;99.90;;;;;;5048201;28;20045;-81
2023/06/20 06:35:59;;;;;;;1999.90;999.90;;;21.40;99.90;;;;;;5052172;28;20067;-81
2023/06/20 06:38:25;;;;;;;1999.90;999.90;;;21.50;99.90;;;;;;5047272;28;20052;-81
2023/06/20 06:40:54;;;;;;;1999.90;999.90;;;21.60;99.90;;;;;;5049563;28;20040;-81
2023/06/20 06:43:20;;;;;;;1999.90;999.90;;;21.60;99.90;;;;;;5051447;28;20057;-81
2023/06/20 06:45:46;;;;;;;1999.90;999.90;;;21.70;99.90;;;;;;5050082;28;20553;-80
2023/06/20 06:48:12;;;;;;;1999.90;999.90;;;21.80;99.90;;;;;;5034558;28;20044;-81
2023/06/20 06:50:38;;;;;;;1999.90;999.90;;;21.90;99.90;;;;;;5050577;28;20045;-81
2023/06/20 06:53:04;;;;;;;1999.90;999.90;;;21.90;99.90;;;;;;5034685;28;20041;-80
2023/06/20 06:55:29;;;;;;;1999.90;999.90;;;22.00;99.90;;;;;;5048976;28;20048;-81
2023/06/20 06:57:55;;;;;;;1999.90;999.90;;;22.00;99.90;;;;;;5040251;28;20057;-81
2023/06/20 07:00:21;;;;;;;1999.90;999.90;;;22.20;99.90;;;;;;5041870;28;20060;-82
2023/06/20 07:02:47;;;;;;;1999.90;952.85;;;22.50;99.90;;;;;;5052054;28;20128;-81
2023/06/20 07:05:13;;;;;;;1999.90;999.90;;;22.70;99.90;;;;;;5051055;28;20049;-81
2023/06/20 07:07:39;;;;;;;1999.90;999.90;;;22.80;99.90;;;;;;5032879;28;20057;-80
2023/06/20 07:10:05;;;;;;;1999.90;999.90;;;22.80;99.90;;;;;;5049214;28;20367;-80
2023/06/20 07:12:31;;;;;;;1999.90;999.90;;;22.80;99.90;;;;;;5051375;28;20041;-80
2023/06/20 07:14:56;;;;;;;1999.90;999.90;;;22.90;99.90;;;;;;5055346;28;20059;-81
2023/06/20 07:17:26;;;;;;;1999.90;999.90;;;22.90;99.90;;;;;;5053796;28;20072;-81
2023/06/20 07:19:52;;;;;;;1999.90;999.90;;;22.90;99.90;;;;;;5054762;28;20075;-81
2023/06/20 07:22:19;;;;;;;1999.90;999.90;;;22.90;99.90;;;;;;5034182;28;20057;-81
2023/06/20 07:24:45;;;;;;;1999.90;999.90;;;23.00;99.90;;;;;;5036194;28;20395;-81
2023/06/20 07:27:10;;;;;;;1999.90;999.90;;;23.00;99.90;;;;;;5037378;28;20036;-80
2023/06/20 07:29:36;;;;;;;1999.90;999.90;;;23.10;99.90;;;;;;5055376;28;20064;-81
2023/06/20 07:32:02;;;;;;;1999.90;999.90;;;23.10;99.90;;;;;;5053065;28;20098;-81
2023/06/20 07:34:28;;;;;;;1999.90;999.90;;;23.20;99.90;;;;;;5054161;28;20049;-81
2023/06/20 07:36:54;;;;;;;1999.90;999.90;;;23.40;99.90;;;;;;5055336;28;20253;-81
2023/06/20 07:39:19;;;;;;;1999.90;999.90;;;23.60;99.90;;;;;;5052898;28;20433;-80
2023/06/20 07:41:45;;;;;;;1999.90;999.90;;;23.70;99.90;;;;;;5051411;28;20466;-79
2023/06/20 07:44:11;;;;;;;1999.90;999.90;;;23.90;99.90;;;;;;5055447;28;20131;-80
2023/06/20 07:46:40;;;;;;;1999.90;999.90;;;24.00;99.90;;;;;;5052060;28;20435;-79
2023/06/20 07:49:06;;;;;;;1999.90;999.90;;;23.80;99.90;;;;;;5054346;28;20136;-82
2023/06/20 07:51:33;;;;;;;1999.90;999.90;;;23.90;99.90;;;;;;5033421;28;20401;-80
2023/06/20 07:54:03;;;;;;;1999.90;999.90;;;23.90;99.90;;;;;;5053748;28;20074;-81
2023/06/20 07:56:28;;;;;;;1999.90;999.90;;;23.80;99.90;;;;;;5050769;28;20409;-80
2023/06/20 07:58:54;;;;;;;1999.90;999.90;;;23.80;99.90;;;;;;5055174;28;20049;-80
2023/06/20 08:01:20;;;;;;;1999.90;999.90;;;23.80;99.90;;;;;;5050409;28;20048;-81
2023/06/20 08:03:46;;;;;;;1999.90;999.90;;;23.80;99.90;;;;;;5037758;28;20049;-81
2023/06/20 08:06:11;;;;;;;1999.90;999.90;;;23.50;99.90;;;;;;5055246;28;20055;-81
2023/06/20 08:08:38;;;;;;;1999.90;999.90;;;23.50;99.90;;;;;;5053947;28;20056;-82
2023/06/20 08:11:04;;;;;;;1999.90;999.90;;;23.50;99.90;;;;;;5050174;28;20041;-80
2023/06/20 08:13:30;;;;;;;1999.90;999.90;;;23.30;99.90;;;;;;5051951;28;20056;-80
2023/06/20 08:15:56;;;;;;;1999.90;999.90;;;23.30;99.90;;;;;;5054553;28;20055;-81
2023/06/20 08:18:22;;;;;;;1999.90;999.90;;;23.30;99.90;;;;;;5054183;28;20127;-81
2023/06/20 08:20:48;;;;;;;1999.90;999.90;;;23.40;99.90;;;;;;5060497;28;20056;-80
2023/06/20 08:23:26;;;;;;;1999.90;999.90;;;23.40;99.90;;;;;;5050637;28;20128;-81
2023/06/20 08:25:53;;;;;;;1999.90;999.90;;;23.40;99.90;;;;;;5052928;28;20081;-80
2023/06/20 08:28:20;;;;;;;1999.90;999.90;;;23.70;99.90;;;;;;5054612;28;20044;-81
2023/06/20 08:30:45;;;;;;;1999.90;999.90;;;23.90;99.90;;;;;;5035542;28;20502;-81
2023/06/20 08:33:11;;;;;;;1999.90;999.90;;;24.10;99.90;;;;;;5052217;28;20068;-80
2023/06/20 08:35:36;;;;;;;1999.90;999.90;;;24.10;99.90;;;;;;5053854;28;20445;-81
2023/06/20 08:38:02;;;;;;;1999.90;999.90;;;24.10;99.90;;;;;;5054429;28;20049;-80
2023/06/20 08:40:30;;;;;;;1999.90;999.90;;;24.50;99.90;;;;;;5052496;28;20045;-81
2023/06/20 08:42:56;;;;;;;1999.90;999.90;;;24.70;99.90;;;;;;5069851;28;20049;-81
2023/06/20 08:45:22;;;;;;;1999.90;999.90;;;24.90;99.90;;;;;;5053528;28;20048;-81
2023/06/20 08:47:47;;;;;;;1999.90;999.90;;;24.90;99.90;;;;;;5053591;28;20075;-81
2023/06/20 08:50:13;;;;;;;1999.90;999.90;;;24.90;99.90;;;;;;5052012;28;20076;-81
2023/06/20 08:52:50;;;;;;;1999.90;999.90;;;25.00;99.90;;;;;;5053953;28;20052;-80
2023/06/20 08:55:16;;;;;;;1999.90;999.90;;;25.10;99.90;;;;;;5050283;28;20393;-81
2023/06/20 08:57:45;;;;;;;1999.90;999.90;;;25.40;99.90;;;;;;5048425;28;20041;-80
2023/06/20 09:00:20;;;;;;;1999.90;999.90;;;25.60;99.90;;;;;;5053212;28;20481;-81
2023/06/20 09:02:47;;;;;;;1999.90;999.90;;;25.90;99.90;;;;;;5052843;28;20049;-80
2023/06/20 09:05:13;;;;;;;1999.90;999.90;;;25.70;99.90;;;;;;5053134;28;20379;-80
2023/06/20 09:07:41;;;;;;;1999.90;999.90;;;25.80;99.90;;;;;;5051160;28;20040;-81
2023/06/20 09:10:09;;;;;;;1999.90;999.90;;;25.90;99.90;;;;;;5035894;28;20049;-81
2023/06/20 09:12:46;;;;;;;1999.90;999.90;;;25.80;99.90;;;;;;5050430;28;20044;-81
2023/06/20 09:15:13;;;;;;;1999.90;999.90;;;25.80;99.90;;;;;;5053386;28;20049;-80
2023/06/20 09:17:40;;;;;;;1999.90;999.90;;;25.80;99.90;;;;;;5051312;28;20127;-80
2023/06/20 09:20:08;;;;;;;1999.90;999.90;;;25.90;99.90;;;;;;5052691;28;20045;-81
2023/06/20 09:22:38;;;;;;;1999.90;999.90;;;25.90;99.90;;;;;;5034250;28;20056;-81
2023/06/20 09:25:04;;;;;;;1999.90;999.90;;;26.00;99.90;;;;;;5052814;28;20056;-80
2023/06/20 09:27:41;;;;;;;1999.90;999.90;;;26.70;99.90;;;;;;5051727;28;20045;-81
2023/06/20 09:30:07;;;;;;;1999.90;999.90;;;27.40;99.90;;;;;;5053812;28;20462;-81
2023/06/20 09:32:39;;;;;;;1999.90;999.90;;;28.40;99.90;;;;;;5043629;28;20402;-81
2023/06/20 09:35:10;;;;;;;1999.90;999.90;;;29.60;99.90;;;;;;5053824;28;20053;-80
2023/06/20 09:37:41;;;;;;;1999.90;999.90;;;30.50;99.90;;;;;;5051871;28;20354;-81
2023/06/20 09:40:11;;;;;;;1999.90;999.90;;;31.50;99.90;;;;;;5053474;28;20486;-81
2023/06/20 09:42:38;;;;;;;1999.90;962.28;;;32.00;99.90;;;;;;5048437;28;21643;-81
2023/06/20 09:45:05;;;;;;;1999.90;999.90;;;31.60;99.90;;;;;;5050723;28;20041;-81
2023/06/20 09:47:30;;;;;;;1903.82;823.63;;;32.00;99.90;;;;;;5051286;28;20126;-82
2023/06/20 09:49:59;;;;;;;1999.90;581.55;;;32.30;99.90;;;;;;5049713;28;20386;-82
2023/06/20 09:52:33;;;;;;;1999.90;999.90;;;32.50;99.90;;;;;;5052792;28;20504;-81
2023/06/20 09:55:02;;;;;;;1999.90;856.38;;;33.50;99.90;;;;;;5051015;28;20509;-81
2023/06/20 09:57:41;;;;;;;1999.90;999.90;;;33.60;99.90;;;;;;5032824;28;20049;-81
2023/06/20 10:00:14;;;;;;;1999.90;999.90;;;34.80;99.90;;;;;;5050441;28;20053;-81
2023/06/20 10:02:45;;;;;;;1999.90;902.75;;;35.80;99.90;;;;;;5050188;28;20041;-81
2023/06/20 10:05:15;;;;;;;1999.90;921.05;;;36.50;99.90;;;;;;5032862;28;20057;-80
2023/06/20 10:07:42;;;;;;;1999.90;999.90;;;37.40;99.90;;;;;;5038052;28;20045;-81
2023/06/20 10:10:10;;;;;;;1999.90;999.90;;;37.30;99.90;;;;;;5028485;28;20056;-80
2023/06/20 10:12:37;;;;;;;1999.90;999.90;;;37.60;99.90;;;;;;5046596;28;20080;-81
2023/06/20 10:15:03;;;;;;;1999.90;999.90;;;37.10;99.90;;;;;;5052613;28;20048;-81
2023/06/20 10:17:32;;;;;;;1999.90;999.90;;;37.10;99.90;;;;;;5034088;28;20571;-81
2023/06/20 10:19:59;;;;;;;1999.90;999.90;;;37.50;99.90;;;;;;5052707;28;20110;-81
2023/06/20 10:22:42;;;;;;;1999.90;999.90;;;37.20;99.90;;;;;;5050758;28;20088;-80
2023/06/20 10:25:14;;;;;;;1999.90;999.90;;;37.00;99.90;;;;;;5050024;28;20053;-81
2023/06/20 10:27:42;;;;;;;1999.90;999.90;;;37.80;99.90;;;;;;5049885;28;20433;-81
2023/06/20 10:30:12;;;;;;;1999.90;999.90;;;37.60;99.90;;;;;;5051053;28;20045;-81
2023/06/20 10:33:08;;;;;;;1999.90;999.90;;;38.30;99.90;;;;;;5049931;28;20045;-82
2023/06/20 10:35:34;;;;;;;1999.90;999.90;;;38.50;99.90;;;;;;5051839;28;20584;-82
2023/06/20 10:38:08;;;;;;;1999.90;999.90;;;37.80;99.90;;;;;;5052592;28;20128;-81
2023/06/20 10:40:36;;;;;;;1999.90;999.90;;;37.80;99.90;;;;;;5048465;28;20076;-82
2023/06/20 10:43:14;;;;;;;1999.90;999.90;;;38.60;99.90;;;;;;5049020;28;20057;-82
2023/06/20 10:45:52;;;;;;;1999.90;999.90;;;39.10;99.90;;;;;;5050480;28;20041;-81
2023/06/20 10:48:19;;;;;;;1999.90;999.90;;;39.20;99.90;;;;;;5051907;28;20051;-81
2023/06/20 10:50:44;;;;;;;;;;;38.70;99.90;;;;;;5056151;28;20477;-80
2023/06/20 10:53:12;;;;;;;1999.90;999.90;;;39.00;99.90;;;;;;5056162;28;19927;-82
2023/06/20 10:55:38;;;;;;;1999.90;999.90;;;38.80;99.90;;;;;;5053164;28;20053;-82
2023/06/20 10:58:04;;;;;;;1999.90;999.90;;;38.10;99.90;;;;;;5050814;28;20056;-80
2023/06/20 11:00:29;;;;;;;1999.90;999.90;;;38.00;99.90;;;;;;5054795;28;20049;-80
2023/06/20 11:02:56;;;;;;;1999.90;999.90;;;38.50;99.90;;;;;;5054008;28;20553;-80
2023/06/20 11:05:27;;;;;;;1999.90;999.90;;;38.40;99.90;;;;;;5056163;28;20084;-81
2023/06/20 11:07:56;;;;;;;1999.90;999.90;;;37.40;99.90;;;;;;5053920;28;20045;-82
2023/06/20 11:10:33;;;;;;;1999.90;999.90;;;38.50;99.90;;;;;;5054430;28;20057;-82
2023/06/20 11:13:02;;;;;;;1999.90;999.90;;;39.20;99.90;;;;;;5066556;28;20512;-82
2023/06/20 11:15:35;;;;;;;1999.90;999.90;;;39.30;99.90;;;;;;5047457;28;20079;-82
2023/06/20 11:18:03;;;;;;;1999.90;999.90;;;38.80;99.90;;;;;;5054703;28;20432;-81
2023/06/20 11:20:30;;;;;;;1999.90;999.90;;;38.40;99.90;;;;;;5053712;28;20075;-81
2023/06/20 11:22:57;;;;;;;1999.90;999.90;;;37.90;99.90;;;;;;5056037;28;20051;-81
2023/06/20 11:25:27;;;;;;;1999.90;999.90;;;37.90;99.90;;;;;;5055844;28;20110;-83
2023/06/20 11:27:53;;;;;;;1999.90;999.90;;;38.80;99.90;;;;;;5033846;28;20059;-80
2023/06/20 11:30:29;;;;;;;1999.90;999.90;;;39.70;99.90;;;;;;5053736;28;20402;-81
2023/06/20 11:33:14;;;;;;;1999.90;999.90;;;39.80;99.90;;;;;;5055260;28;20759;-81
2023/06/20 11:35:51;;;;;;;1999.90;999.90;;;38.60;99.90;;;;;;5049805;28;20037;-82
2023/06/20 11:38:26;;;;;;;1999.90;999.90;;;38.50;99.90;;;;;;5047784;28;20080;-81
2023/06/20 11:41:04;;;;;;;1999.90;999.90;;;39.10;99.90;;;;;;5044415;28;20044;-81
2023/06/20 11:43:36;;;;;;;;;;;38.60;99.90;;;;;;5053434;28;20048;-82
2023/06/20 11:46:02;;;;;;;1999.90;999.90;;;38.40;99.90;;;;;;5048981;28;19928;-80
2023/06/20 11:48:28;;;;;;;1999.90;999.90;;;38.20;99.90;;;;;;5052560;28;20175;-81
2023/06/20 11:51:00;;;;;;;1999.90;999.90;;;37.50;99.90;;;;;;5049885;28;20041;-83
2023/06/20 11:53:34;;;;;;;1999.90;999.90;;;37.70;99.90;;;;;;5044051;28;20393;-82
2023/06/20 11:56:03;;;;;;;1999.90;999.90;;;38.10;99.90;;;;;;5034987;28;20049;-82
2023/06/20 11:58:36;;;;;;;1999.90;999.90;;;37.50;99.90;;;;;;5048781;28;20049;-82
2023/06/20 12:01:16;;;;;;;1999.90;999.90;;;37.90;99.90;;;;;;5047494;28;20037;-82
2023/06/20 12:03:44;;;;;;;1999.90;999.90;;;37.90;99.90;;;;;;5047088;28;20077;-82
2023/06/20 12:06:28;;;;;;;1999.90;999.90;;;37.30;99.90;;;;;;5045535;28;20497;-84
2023/06/20 12:08:59;;;;;;;1999.90;999.90;;;38.00;99.90;;;;;;5044443;28;20053;-82